Terminal Aerodrome Forecast
Issued by NWS

Home | Current Version | Previous Version | Text Only | Print | Product List | Glossary On
Versions: 1 2 3 4 5 6 7 8 9 10 11 12 13 14 15
000
FTUS44 KEPZ 081827 AAA
TAFTCS
TAF AMD
KTCS 081827Z 0818/0918 05007KT P6SM BKN035 BKN070
     FM082200 18006KT P6SM SCT040
     FM090300 VRB06KT P6SM BKN030 BKN250=

USA.gov is the U.S. government's official web portal to all federal, state and local government web resources and services.